sensor_id;sensor_type;location;lat;lon;timestamp;temperature;humidity
35645;DHT22;21764;52.042;6.830;2023-06-22T00:04:57;19.90;92.70
35645;DHT22;21764;52.042;6.830;2023-06-22T00:09:57;19.80;92.70
35645;DHT22;21764;52.042;6.830;2023-06-22T00:14:58;19.70;92.90
35645;DHT22;21764;52.042;6.830;2023-06-22T00:19:59;19.70;93.00
35645;DHT22;21764;52.042;6.830;2023-06-22T00:25:00;19.60;93.10
35645;DHT22;21764;52.042;6.830;2023-06-22T00:30:01;19.50;93.20
35645;DHT22;21764;52.042;6.830;2023-06-22T00:35:02;19.50;93.40
35645;DHT22;21764;52.042;6.830;2023-06-22T00:40:03;19.50;93.50
35645;DHT22;21764;52.042;6.830;2023-06-22T00:45:06;19.40;93.80
35645;DHT22;21764;52.042;6.830;2023-06-22T00:50:08;19.40;93.80
35645;DHT22;21764;52.042;6.830;2023-06-22T00:55:10;19.40;93.90
35645;DHT22;21764;52.042;6.830;2023-06-22T01:00:11;19.30;93.90
35645;DHT22;21764;52.042;6.830;2023-06-22T01:05:21;19.30;94.10
35645;DHT22;21764;52.042;6.830;2023-06-22T01:10:27;19.30;94.30
35645;DHT22;21764;52.042;6.830;2023-06-22T01:16:10;19.20;94.30
35645;DHT22;21764;52.042;6.830;2023-06-22T01:21:04;19.10;94.60
35645;DHT22;21764;52.042;6.830;2023-06-22T01:26:34;19.00;94.60
35645;DHT22;21764;52.042;6.830;2023-06-22T01:31:36;19.00;95.00
35645;DHT22;21764;52.042;6.830;2023-06-22T01:36:38;19.00;95.10
35645;DHT22;21764;52.042;6.830;2023-06-22T01:41:40;18.90;95.30
35645;DHT22;21764;52.042;6.830;2023-06-22T01:46:42;18.90;95.50
35645;DHT22;21764;52.042;6.830;2023-06-22T01:51:43;18.90;95.60
35645;DHT22;21764;52.042;6.830;2023-06-22T01:56:44;18.90;95.90
35645;DHT22;21764;52.042;6.830;2023-06-22T02:01:58;18.90;95.90
35645;DHT22;21764;52.042;6.830;2023-06-22T02:06:59;18.90;96.00
35645;DHT22;21764;52.042;6.830;2023-06-22T02:12:02;18.90;96.10
35645;DHT22;21764;52.042;6.830;2023-06-22T02:17:04;18.90;96.50
35645;DHT22;21764;52.042;6.830;2023-06-22T02:22:08;18.90;96.60
35645;DHT22;21764;52.042;6.830;2023-06-22T02:27:08;18.80;96.80
35645;DHT22;21764;52.042;6.830;2023-06-22T02:32:09;18.80;97.00
35645;DHT22;21764;52.042;6.830;2023-06-22T02:37:10;18.80;97.10
35645;DHT22;21764;52.042;6.830;2023-06-22T02:42:11;18.80;97.00
35645;DHT22;21764;52.042;6.830;2023-06-22T02:47:11;18.80;97.10
35645;DHT22;21764;52.042;6.830;2023-06-22T02:52:12;18.70;97.60
35645;DHT22;21764;52.042;6.830;2023-06-22T02:57:13;18.70;97.60
35645;DHT22;21764;52.042;6.830;2023-06-22T03:02:14;18.60;97.80
35645;DHT22;21764;52.042;6.830;2023-06-22T03:07:15;18.60;98.10
35645;DHT22;21764;52.042;6.830;2023-06-22T03:12:17;18.60;98.00
35645;DHT22;21764;52.042;6.830;2023-06-22T03:17:18;18.60;98.20
35645;DHT22;21764;52.042;6.830;2023-06-22T03:22:18;18.60;98.30
35645;DHT22;21764;52.042;6.830;2023-06-22T03:27:19;18.50;98.50
35645;DHT22;21764;52.042;6.830;2023-06-22T03:32:20;18.40;98.80
35645;DHT22;21764;52.042;6.830;2023-06-22T03:37:21;18.40;99.10
35645;DHT22;21764;52.042;6.830;2023-06-22T03:42:22;18.40;99.00
35645;DHT22;21764;52.042;6.830;2023-06-22T03:47:23;18.50;99.00
35645;DHT22;21764;52.042;6.830;2023-06-22T03:52:23;18.50;99.00
35645;DHT22;21764;52.042;6.830;2023-06-22T03:57:25;18.50;99.10
35645;DHT22;21764;52.042;6.830;2023-06-22T04:02:26;18.60;99.10
35645;DHT22;21764;52.042;6.830;2023-06-22T04:07:26;18.60;99.10
35645;DHT22;21764;52.042;6.830;2023-06-22T04:12:27;18.70;99.00
35645;DHT22;21764;52.042;6.830;2023-06-22T04:17:28;18.80;98.90
35645;DHT22;21764;52.042;6.830;2023-06-22T04:22:28;19.20;98.60
35645;DHT22;21764;52.042;6.830;2023-06-22T04:27:29;19.70;97.70
35645;DHT22;21764;52.042;6.830;2023-06-22T04:32:30;20.20;96.40
35645;DHT22;21764;52.042;6.830;2023-06-22T04:37:31;20.90;96.00
35645;DHT22;21764;52.042;6.830;2023-06-22T04:42:33;21.50;94.10
35645;DHT22;21764;52.042;6.830;2023-06-22T04:47:34;21.50;93.50
35645;DHT22;21764;52.042;6.830;2023-06-22T04:52:34;21.10;93.90
35645;DHT22;21764;52.042;6.830;2023-06-22T04:57:35;20.80;94.50
35645;DHT22;21764;52.042;6.830;2023-06-22T05:02:39;20.80;94.70
35645;DHT22;21764;52.042;6.830;2023-06-22T05:07:45;20.90;94.40
35645;DHT22;21764;52.042;6.830;2023-06-22T05:12:48;21.80;93.30
35645;DHT22;21764;52.042;6.830;2023-06-22T05:17:49;23.10;91.00
35645;DHT22;21764;52.042;6.830;2023-06-22T05:22:49;23.90;89.00
35645;DHT22;21764;52.042;6.830;2023-06-22T05:27:50;24.80;85.30
35645;DHT22;21764;52.042;6.830;2023-06-22T05:32:52;25.60;81.80
35645;DHT22;21764;52.042;6.830;2023-06-22T05:37:53;26.60;77.70
35645;DHT22;21764;52.042;6.830;2023-06-22T05:42:53;27.80;73.90
35645;DHT22;21764;52.042;6.830;2023-06-22T05:47:54;27.80;72.50
35645;DHT22;21764;52.042;6.830;2023-06-22T05:52:55;27.80;72.40
35645;DHT22;21764;52.042;6.830;2023-06-22T05:57:55;28.50;70.70
35645;DHT22;21764;52.042;6.830;2023-06-22T06:02:56;29.70;67.50
35645;DHT22;21764;52.042;6.830;2023-06-22T06:07:58;29.90;65.60
35645;DHT22;21764;52.042;6.830;2023-06-22T06:12:59;26.80;72.80
35645;DHT22;21764;52.042;6.830;2023-06-22T06:18:01;26.20;74.80
35645;DHT22;21764;52.042;6.830;2023-06-22T06:23:05;25.40;77.00
35645;DHT22;21764;52.042;6.830;2023-06-22T06:28:06;24.90;78.00
35645;DHT22;21764;52.042;6.830;2023-06-22T06:33:06;24.40;79.70
35645;DHT22;21764;52.042;6.830;2023-06-22T06:38:09;24.70;79.70
35645;DHT22;21764;52.042;6.830;2023-06-22T06:43:09;25.10;78.80
35645;DHT22;21764;52.042;6.830;2023-06-22T06:48:10;25.30;77.60
35645;DHT22;21764;52.042;6.830;2023-06-22T06:53:11;25.50;77.30
35645;DHT22;21764;52.042;6.830;2023-06-22T06:58:11;25.50;77.50
35645;DHT22;21764;52.042;6.830;2023-06-22T07:03:13;24.50;80.10
35645;DHT22;21764;52.042;6.830;2023-06-22T07:08:14;24.40;80.90
35645;DHT22;21764;52.042;6.830;2023-06-22T07:13:14;24.60;80.60
35645;DHT22;21764;52.042;6.830;2023-06-22T07:18:15;24.90;80.10
35645;DHT22;21764;52.042;6.830;2023-06-22T07:23:17;25.00;80.10
35645;DHT22;21764;52.042;6.830;2023-06-22T07:28:17;25.20;79.20
35645;DHT22;21764;52.042;6.830;2023-06-22T07:33:19;25.50;78.80
35645;DHT22;21764;52.042;6.830;2023-06-22T07:38:20;26.10;76.60
35645;DHT22;21764;52.042;6.830;2023-06-22T07:43:21;25.50;76.90
35645;DHT22;21764;52.042;6.830;2023-06-22T07:48:21;24.90;79.40
35645;DHT22;21764;52.042;6.830;2023-06-22T07:53:22;24.50;80.50
35645;DHT22;21764;52.042;6.830;2023-06-22T07:58:23;23.80;82.90
35645;DHT22;21764;52.042;6.830;2023-06-22T08:03:24;24.00;83.20
35645;DHT22;21764;52.042;6.830;2023-06-22T08:08:26;23.80;83.50
35645;DHT22;21764;52.042;6.830;2023-06-22T08:13:26;23.60;84.30
35645;DHT22;21764;52.042;6.830;2023-06-22T08:18:28;23.50;84.90
35645;DHT22;21764;52.042;6.830;2023-06-22T08:23:28;23.60;84.80
35645;DHT22;21764;52.042;6.830;2023-06-22T08:28:29;24.10;83.70
35645;DHT22;21764;52.042;6.830;2023-06-22T08:33:30;24.60;82.80
35645;DHT22;21764;52.042;6.830;2023-06-22T08:38:31;24.70;81.50
35645;DHT22;21764;52.042;6.830;2023-06-22T08:43:32;24.90;81.80
35645;DHT22;21764;52.042;6.830;2023-06-22T08:48:32;25.40;79.90
35645;DHT22;21764;52.042;6.830;2023-06-22T08:53:33;26.00;78.50
35645;DHT22;21764;52.042;6.830;2023-06-22T08:58:35;26.80;77.20
35645;DHT22;21764;52.042;6.830;2023-06-22T09:03:36;27.30;75.00
35645;DHT22;21764;52.042;6.830;2023-06-22T09:08:37;26.80;75.00
35645;DHT22;21764;52.042;6.830;2023-06-22T09:13:38;26.40;76.20
35645;DHT22;21764;52.042;6.830;2023-06-22T09:18:39;26.50;76.80
35645;DHT22;21764;52.042;6.830;2023-06-22T09:23:40;26.40;77.10
35645;DHT22;21764;52.042;6.830;2023-06-22T09:28:40;26.10;77.60
35645;DHT22;21764;52.042;6.830;2023-06-22T09:33:41;25.90;77.90
35645;DHT22;21764;52.042;6.830;2023-06-22T09:38:42;25.90;78.80
35645;DHT22;21764;52.042;6.830;2023-06-22T09:43:43;25.80;78.30
35645;DHT22;21764;52.042;6.830;2023-06-22T09:48:43;25.70;78.70
35645;DHT22;21764;52.042;6.830;2023-06-22T09:53:44;25.60;79.40
35645;DHT22;21764;52.042;6.830;2023-06-22T09:58:46;25.50;79.40
35645;DHT22;21764;52.042;6.830;2023-06-22T10:03:47;25.70;79.10
35645;DHT22;21764;52.042;6.830;2023-06-22T10:08:48;26.00;78.60
35645;DHT22;21764;52.042;6.830;2023-06-22T10:13:50;26.10;78.10
35645;DHT22;21764;52.042;6.830;2023-06-22T10:18:51;26.20;77.30
35645;DHT22;21764;52.042;6.830;2023-06-22T10:23:51;25.90;78.00
35645;DHT22;21764;52.042;6.830;2023-06-22T10:28:52;25.80;78.80
35645;DHT22;21764;52.042;6.830;2023-06-22T10:33:54;25.90;78.90
35645;DHT22;21764;52.042;6.830;2023-06-22T10:38:55;25.50;79.30
35645;DHT22;21764;52.042;6.830;2023-06-22T10:43:56;25.20;78.70
35645;DHT22;21764;52.042;6.830;2023-06-22T10:48:57;25.10;79.90
35645;DHT22;21764;52.042;6.830;2023-06-22T10:53:59;25.10;80.00
35645;DHT22;21764;52.042;6.830;2023-06-22T10:58:59;25.10;80.00
35645;DHT22;21764;52.042;6.830;2023-06-22T11:04:00;25.20;80.10
35645;DHT22;21764;52.042;6.830;2023-06-22T11:09:01;25.00;80.10
35645;DHT22;21764;52.042;6.830;2023-06-22T11:14:02;25.10;80.40
35645;DHT22;21764;52.042;6.830;2023-06-22T11:19:05;25.50;79.20
35645;DHT22;21764;52.042;6.830;2023-06-22T11:24:06;25.60;79.20
35645;DHT22;21764;52.042;6.830;2023-06-22T11:29:06;25.70;79.50
35645;DHT22;21764;52.042;6.830;2023-06-22T11:34:08;25.50;80.30
35645;DHT22;21764;52.042;6.830;2023-06-22T11:39:09;25.00;81.60
35645;DHT22;21764;52.042;6.830;2023-06-22T11:44:10;24.80;82.30
35645;DHT22;21764;52.042;6.830;2023-06-22T11:49:10;24.50;83.50
35645;DHT22;21764;52.042;6.830;2023-06-22T11:54:11;24.30;84.10
35645;DHT22;21764;52.042;6.830;2023-06-22T11:59:12;24.20;84.40
35645;DHT22;21764;52.042;6.830;2023-06-22T12:04:12;24.10;85.00
35645;DHT22;21764;52.042;6.830;2023-06-22T12:09:13;24.00;85.20
35645;DHT22;21764;52.042;6.830;2023-06-22T12:14:14;23.90;86.10
35645;DHT22;21764;52.042;6.830;2023-06-22T12:19:15;23.80;87.20
35645;DHT22;21764;52.042;6.830;2023-06-22T12:24:16;23.70;87.60
35645;DHT22;21764;52.042;6.830;2023-06-22T12:29:16;23.70;87.80
35645;DHT22;21764;52.042;6.830;2023-06-22T12:34:17;23.60;88.00
35645;DHT22;21764;52.042;6.830;2023-06-22T12:39:18;23.60;88.60
35645;DHT22;21764;52.042;6.830;2023-06-22T12:44:18;23.60;89.10
35645;DHT22;21764;52.042;6.830;2023-06-22T12:49:19;23.60;90.70
35645;DHT22;21764;52.042;6.830;2023-06-22T12:54:20;23.50;91.30
35645;DHT22;21764;52.042;6.830;2023-06-22T12:59:20;23.30;92.00
35645;DHT22;21764;52.042;6.830;2023-06-22T13:04:21;23.00;93.30
35645;DHT22;21764;52.042;6.830;2023-06-22T13:09:22;23.00;93.60
35645;DHT22;21764;52.042;6.830;2023-06-22T13:14:22;23.00;94.70
35645;DHT22;21764;52.042;6.830;2023-06-22T13:19:23;23.00;95.60
35645;DHT22;21764;52.042;6.830;2023-06-22T13:24:24;23.30;95.60
35645;DHT22;21764;52.042;6.830;2023-06-22T13:29:24;23.70;95.10
35645;DHT22;21764;52.042;6.830;2023-06-22T13:34:25;24.10;94.80
35645;DHT22;21764;52.042;6.830;2023-06-22T13:39:26;24.70;94.40
35645;DHT22;21764;52.042;6.830;2023-06-22T13:44:26;24.40;93.70
35645;DHT22;21764;52.042;6.830;2023-06-22T13:49:30;24.60;94.30
35645;DHT22;21764;52.042;6.830;2023-06-22T13:54:31;24.90;93.00
35645;DHT22;21764;52.042;6.830;2023-06-22T13:59:31;25.00;92.80
35645;DHT22;21764;52.042;6.830;2023-06-22T14:04:32;25.40;92.30
35645;DHT22;21764;52.042;6.830;2023-06-22T14:09:33;25.00;93.00
35645;DHT22;21764;52.042;6.830;2023-06-22T14:14:34;25.10;92.30
35645;DHT22;21764;52.042;6.830;2023-06-22T14:19:34;24.70;93.20
35645;DHT22;21764;52.042;6.830;2023-06-22T14:24:35;24.20;93.70
35645;DHT22;21764;52.042;6.830;2023-06-22T14:29:36;23.80;94.30
35645;DHT22;21764;52.042;6.830;2023-06-22T14:34:36;23.80;94.30
35645;DHT22;21764;52.042;6.830;2023-06-22T14:39:39;24.10;94.00
35645;DHT22;21764;52.042;6.830;2023-06-22T14:44:40;24.40;93.50
35645;DHT22;21764;52.042;6.830;2023-06-22T14:49:41;24.40;93.20
35645;DHT22;21764;52.042;6.830;2023-06-22T14:54:41;24.60;93.60
35645;DHT22;21764;52.042;6.830;2023-06-22T14:59:42;24.70;93.60
35645;DHT22;21764;52.042;6.830;2023-06-22T15:04:43;24.40;93.00
35645;DHT22;21764;52.042;6.830;2023-06-22T15:09:43;23.90;93.60
35645;DHT22;21764;52.042;6.830;2023-06-22T15:14:45;23.60;94.20
35645;DHT22;21764;52.042;6.830;2023-06-22T15:19:46;23.40;94.70
35645;DHT22;21764;52.042;6.830;2023-06-22T15:24:47;23.30;95.00
35645;DHT22;21764;52.042;6.830;2023-06-22T15:29:48;23.10;94.90
35645;DHT22;21764;52.042;6.830;2023-06-22T15:34:50;23.00;95.30
35645;DHT22;21764;52.042;6.830;2023-06-22T15:39:54;23.00;95.30
35645;DHT22;21764;52.042;6.830;2023-06-22T15:44:56;23.00;95.30
35645;DHT22;21764;52.042;6.830;2023-06-22T15:49:57;22.80;95.70
35645;DHT22;21764;52.042;6.830;2023-06-22T15:54:57;22.70;95.80
35645;DHT22;21764;52.042;6.830;2023-06-22T16:00:00;22.40;96.70
35645;DHT22;21764;52.042;6.830;2023-06-22T16:05:01;22.20;97.00
35645;DHT22;21764;52.042;6.830;2023-06-22T16:10:04;22.20;97.00
35645;DHT22;21764;52.042;6.830;2023-06-22T16:15:05;22.20;96.90
35645;DHT22;21764;52.042;6.830;2023-06-22T16:20:07;22.10;97.30
35645;DHT22;21764;52.042;6.830;2023-06-22T16:25:08;22.10;97.50
35645;DHT22;21764;52.042;6.830;2023-06-22T16:30:09;22.00;97.70
35645;DHT22;21764;52.042;6.830;2023-06-22T16:35:10;21.80;98.30
35645;DHT22;21764;52.042;6.830;2023-06-22T16:40:11;21.70;98.60
35645;DHT22;21764;52.042;6.830;2023-06-22T16:45:16;21.60;98.90
35645;DHT22;21764;52.042;6.830;2023-06-22T16:50:17;21.60;99.20
35645;DHT22;21764;52.042;6.830;2023-06-22T16:55:21;21.60;99.20
35645;DHT22;21764;52.042;6.830;2023-06-22T17:03:13;21.60;99.50
35645;DHT22;21764;52.042;6.830;2023-06-22T17:08:15;21.60;99.90
35645;DHT22;21764;52.042;6.830;2023-06-22T17:13:17;21.60;99.90
35645;DHT22;21764;52.042;6.830;2023-06-22T17:18:18;21.40;99.90
35645;DHT22;21764;52.042;6.830;2023-06-22T17:23:20;21.40;99.90
35645;DHT22;21764;52.042;6.830;2023-06-22T17:28:21;21.30;99.90
35645;DHT22;21764;52.042;6.830;2023-06-22T17:33:21;21.20;99.90
35645;DHT22;21764;52.042;6.830;2023-06-22T17:38:23;21.10;99.90
35645;DHT22;21764;52.042;6.830;2023-06-22T17:43:25;21.00;99.90
35645;DHT22;21764;52.042;6.830;2023-06-22T17:48:30;20.90;99.90
35645;DHT22;21764;52.042;6.830;2023-06-22T17:53:31;20.80;99.90
35645;DHT22;21764;52.042;6.830;2023-06-22T17:58:31;20.80;99.90
35645;DHT22;21764;52.042;6.830;2023-06-22T18:03:33;20.70;99.90
35645;DHT22;21764;52.042;6.830;2023-06-22T18:08:37;20.70;99.90
35645;DHT22;21764;52.042;6.830;2023-06-22T18:13:38;20.60;99.90
35645;DHT22;21764;52.042;6.830;2023-06-22T18:18:41;20.60;99.90
35645;DHT22;21764;52.042;6.830;2023-06-22T18:23:42;20.50;99.90
35645;DHT22;21764;52.042;6.830;2023-06-22T18:28:43;20.50;99.90
35645;DHT22;21764;52.042;6.830;2023-06-22T18:33:45;20.40;99.90
35645;DHT22;21764;52.042;6.830;2023-06-22T18:38:47;20.30;99.90
35645;DHT22;21764;52.042;6.830;2023-06-22T18:43:51;20.20;99.90
35645;DHT22;21764;52.042;6.830;2023-06-22T18:49:02;20.10;99.90
35645;DHT22;21764;52.042;6.830;2023-06-22T18:54:07;20.00;99.90
35645;DHT22;21764;52.042;6.830;2023-06-22T18:59:11;19.90;99.90
35645;DHT22;21764;52.042;6.830;2023-06-22T19:04:15;19.70;99.90
35645;DHT22;21764;52.042;6.830;2023-06-22T19:09:17;19.50;99.90
35645;DHT22;21764;52.042;6.830;2023-06-22T19:14:20;19.30;99.90
35645;DHT22;21764;52.042;6.830;2023-06-22T19:19:24;19.20;99.90
35645;DHT22;21764;52.042;6.830;2023-06-22T19:24:29;19.00;99.90
35645;DHT22;21764;52.042;6.830;2023-06-22T19:29:31;18.90;99.90
35645;DHT22;21764;52.042;6.830;2023-06-22T19:34:34;18.80;99.90
35645;DHT22;21764;52.042;6.830;2023-06-22T19:39:35;18.70;99.90
35645;DHT22;21764;52.042;6.830;2023-06-22T19:44:39;18.70;99.90
35645;DHT22;21764;52.042;6.830;2023-06-22T19:49:40;18.50;99.90
35645;DHT22;21764;52.042;6.830;2023-06-22T19:54:40;18.40;99.90
35645;DHT22;21764;52.042;6.830;2023-06-22T19:59:41;18.40;99.90
35645;DHT22;21764;52.042;6.830;2023-06-22T20:04:44;18.40;99.90
35645;DHT22;21764;52.042;6.830;2023-06-22T20:09:45;18.30;99.90
35645;DHT22;21764;52.042;6.830;2023-06-22T20:14:46;18.30;99.90
35645;DHT22;21764;52.042;6.830;2023-06-22T20:19:53;18.20;99.90
35645;DHT22;21764;52.042;6.830;2023-06-22T20:24:54;18.10;99.90
35645;DHT22;21764;52.042;6.830;2023-06-22T20:29:54;18.00;99.90
35645;DHT22;21764;52.042;6.830;2023-06-22T20:34:55;18.00;99.90
35645;DHT22;21764;52.042;6.830;2023-06-22T20:39:56;18.10;99.90
35645;DHT22;21764;52.042;6.830;2023-06-22T20:44:56;18.10;99.90
35645;DHT22;21764;52.042;6.830;2023-06-22T20:49:58;18.10;99.90
35645;DHT22;21764;52.042;6.830;2023-06-22T20:54:59;18.00;99.90
35645;DHT22;21764;52.042;6.830;2023-06-22T21:00:03;18.00;99.90
35645;DHT22;21764;52.042;6.830;2023-06-22T21:05:07;18.00;99.90
35645;DHT22;21764;52.042;6.830;2023-06-22T21:10:08;18.00;99.90
35645;DHT22;21764;52.042;6.830;2023-06-22T21:15:09;17.90;99.90
35645;DHT22;21764;52.042;6.830;2023-06-22T21:20:10;17.90;99.90
35645;DHT22;21764;52.042;6.830;2023-06-22T21:25:12;17.90;99.90
35645;DHT22;21764;52.042;6.830;2023-06-22T21:30:14;17.90;99.90
35645;DHT22;21764;52.042;6.830;2023-06-22T21:35:15;17.80;99.90
35645;DHT22;21764;52.042;6.830;2023-06-22T21:40:16;17.80;99.90
35645;DHT22;21764;52.042;6.830;2023-06-22T21:45:17;17.80;99.90
35645;DHT22;21764;52.042;6.830;2023-06-22T21:50:19;17.70;99.90
35645;DHT22;21764;52.042;6.830;2023-06-22T21:55:20;17.60;99.90
35645;DHT22;21764;52.042;6.830;2023-06-22T22:00:20;17.60;99.90
35645;DHT22;21764;52.042;6.830;2023-06-22T22:05:21;17.50;99.90
35645;DHT22;21764;52.042;6.830;2023-06-22T22:10:23;17.40;99.90
35645;DHT22;21764;52.042;6.830;2023-06-22T22:15:23;17.40;99.90
35645;DHT22;21764;52.042;6.830;2023-06-22T22:20:24;17.30;99.90
35645;DHT22;21764;52.042;6.830;2023-06-22T22:25:25;17.30;99.90
35645;DHT22;21764;52.042;6.830;2023-06-22T22:30:26;17.30;99.90
35645;DHT22;21764;52.042;6.830;2023-06-22T22:35:26;17.30;99.90
35645;DHT22;21764;52.042;6.830;2023-06-22T22:40:27;17.30;99.90
35645;DHT22;21764;52.042;6.830;2023-06-22T22:45:28;17.30;99.90
35645;DHT22;21764;52.042;6.830;2023-06-22T22:50:28;17.30;99.90
35645;DHT22;21764;52.042;6.830;2023-06-22T22:55:29;17.30;99.90
35645;DHT22;21764;52.042;6.830;2023-06-22T23:00:31;17.20;99.90
35645;DHT22;21764;52.042;6.830;2023-06-22T23:05:32;17.20;99.90
35645;DHT22;21764;52.042;6.830;2023-06-22T23:10:34;17.20;99.90
35645;DHT22;21764;52.042;6.830;2023-06-22T23:15:34;17.10;99.90
35645;DHT22;21764;52.042;6.830;2023-06-22T23:20:35;17.20;99.90
35645;DHT22;21764;52.042;6.830;2023-06-22T23:25:36;17.20;99.90
35645;DHT22;21764;52.042;6.830;2023-06-22T23:30:38;17.30;99.90
35645;DHT22;21764;52.042;6.830;2023-06-22T23:35:39;17.30;99.90
35645;DHT22;21764;52.042;6.830;2023-06-22T23:40:40;17.30;99.90
35645;DHT22;21764;52.042;6.830;2023-06-22T23:45:41;17.30;99.90
35645;DHT22;21764;52.042;6.830;2023-06-22T23:50:42;17.30;99.90
35645;DHT22;21764;52.042;6.830;2023-06-22T23:55:43;17.30;99.90
